createdAt,value
2017-09-12T00:01:58.026Z,13.50
2017-09-12T00:04:24.198Z,13.40
2017-09-12T00:06:50.346Z,13.40
2017-09-12T00:09:16.507Z,13.40
2017-09-12T00:11:42.650Z,13.40
2017-09-12T00:14:08.798Z,13.40
2017-09-12T00:16:35.682Z,13.30
2017-09-12T00:19:01.817Z,13.30
2017-09-12T00:21:27.979Z,13.30
2017-09-12T00:23:54.586Z,13.30
2017-09-12T00:26:21.497Z,13.30
2017-09-12T00:28:48.371Z,13.30
2017-09-12T00:31:14.522Z,13.30
2017-09-12T00:33:40.712Z,13.30
2017-09-12T00:36:06.902Z,13.30
2017-09-12T00:38:33.051Z,13.20
2017-09-12T00:40:59.226Z,13.20
2017-09-12T00:43:25.370Z,13.20
2017-09-12T00:45:51.511Z,13.20
2017-09-12T00:48:17.667Z,13.20
2017-09-12T00:50:43.810Z,13.20
2017-09-12T00:53:10.019Z,13.20
2017-09-12T00:55:36.182Z,13.20
2017-09-12T00:58:02.359Z,13.20
2017-09-12T01:00:28.518Z,13.20
2017-09-12T01:02:54.666Z,13.20
2017-09-12T01:05:20.810Z,13.20
2017-09-12T01:07:46.979Z,13.10
2017-09-12T01:10:13.154Z,13.10
2017-09-12T01:12:39.321Z,13.10
2017-09-12T01:15:05.472Z,13.10
2017-09-12T01:17:34.944Z,13.00
2017-09-12T01:20:01.139Z,13.00
2017-09-12T01:22:27.356Z,13.00
2017-09-12T01:24:53.514Z,13.00
2017-09-12T01:27:19.700Z,13.00
2017-09-12T01:29:46.578Z,13.00
2017-09-12T01:32:12.715Z,13.00
2017-09-12T01:34:38.866Z,13.00
2017-09-12T01:37:05.008Z,12.90
2017-09-12T01:39:31.143Z,12.90
2017-09-12T01:41:57.283Z,12.90
2017-09-12T01:44:24.178Z,12.80
2017-09-12T01:46:50.314Z,12.90
2017-09-12T01:49:16.508Z,12.80
2017-09-12T01:51:42.627Z,12.80
2017-09-12T01:54:08.754Z,12.80
2017-09-12T01:56:34.894Z,12.80
2017-09-12T01:59:01.056Z,12.70
2017-09-12T02:01:27.182Z,12.70
2017-09-12T02:03:53.313Z,12.60
2017-09-12T02:06:19.461Z,12.70
2017-09-12T02:08:45.598Z,12.70
2017-09-12T02:11:11.747Z,12.60
2017-09-12T02:13:37.938Z,12.70
2017-09-12T02:16:04.066Z,12.60
2017-09-12T02:18:30.175Z,12.60
2017-09-12T02:20:57.048Z,12.70
2017-09-12T02:23:23.164Z,12.60
2017-09-12T02:25:49.307Z,12.70
2017-09-12T02:28:15.423Z,12.70
2017-09-12T02:30:41.670Z,12.60
2017-09-12T02:33:07.848Z,12.70
2017-09-12T02:35:34.012Z,12.60
2017-09-12T02:38:00.146Z,12.70
2017-09-12T02:40:26.324Z,12.60
2017-09-12T02:42:52.450Z,12.60
2017-09-12T02:45:18.559Z,12.60
2017-09-12T02:47:44.715Z,12.60
2017-09-12T02:50:11.680Z,12.50
2017-09-12T02:52:37.843Z,12.50
2017-09-12T02:55:04.003Z,12.50
2017-09-12T02:57:30.151Z,12.50
2017-09-12T02:59:56.304Z,12.50
2017-09-12T03:02:23.199Z,12.50
2017-09-12T03:04:49.456Z,12.50
2017-09-12T03:07:15.610Z,12.50
2017-09-12T03:09:41.758Z,12.40
2017-09-12T03:12:07.920Z,12.50
2017-09-12T03:14:34.055Z,12.40
2017-09-12T03:17:00.203Z,12.40
2017-09-12T03:19:26.422Z,12.40
2017-09-12T03:21:52.632Z,12.40
2017-09-12T03:24:19.510Z,12.40
2017-09-12T03:26:45.634Z,12.50
2017-09-12T03:29:11.796Z,12.40
2017-09-12T03:31:37.926Z,12.40
2017-09-12T03:34:04.124Z,12.40
2017-09-12T03:36:30.268Z,12.40
2017-09-12T03:38:56.430Z,12.40
2017-09-12T03:41:23.324Z,12.40
2017-09-12T03:43:49.488Z,12.40
2017-09-12T03:46:15.637Z,12.40
2017-09-12T03:48:41.819Z,12.50
2017-09-12T03:51:07.942Z,12.50
2017-09-12T03:53:34.095Z,12.40
2017-09-12T03:56:00.273Z,12.50
2017-09-12T03:58:26.404Z,12.50
2017-09-12T04:00:52.554Z,12.40
2017-09-12T04:03:18.706Z,12.50
2017-09-12T04:05:44.910Z,12.40
2017-09-12T04:08:11.031Z,12.50
2017-09-12T04:10:37.224Z,12.50
2017-09-12T04:13:03.370Z,12.40
2017-09-12T04:15:29.538Z,12.50
2017-09-12T04:17:55.670Z,12.50
2017-09-12T04:20:21.875Z,12.50
2017-09-12T04:22:48.068Z,12.50
2017-09-12T04:25:14.965Z,12.50
2017-09-12T04:27:41.150Z,12.50
2017-09-12T04:30:07.310Z,12.50
2017-09-12T04:32:33.458Z,12.50
2017-09-12T04:34:59.603Z,12.50
2017-09-12T04:37:25.799Z,12.50
2017-09-12T04:39:51.942Z,12.50
2017-09-12T04:42:18.116Z,12.50
2017-09-12T04:44:44.352Z,12.50
2017-09-12T04:47:10.503Z,12.50
2017-09-12T04:49:36.651Z,12.50
2017-09-12T04:52:02.807Z,12.50
2017-09-12T04:54:29.023Z,12.50
2017-09-12T04:56:55.190Z,12.50
2017-09-12T04:59:21.344Z,12.50
2017-09-12T05:01:47.480Z,12.50
2017-09-12T05:04:13.602Z,12.50
2017-09-12T05:06:40.427Z,12.60
2017-09-12T05:09:06.590Z,12.60
2017-09-12T05:11:32.766Z,12.60
2017-09-12T05:13:58.921Z,12.70
2017-09-12T05:16:27.096Z,12.70
2017-09-12T05:18:54.006Z,12.70
2017-09-12T05:21:20.122Z,12.70
2017-09-12T05:23:46.266Z,12.80
2017-09-12T05:26:13.151Z,12.80
2017-09-12T05:28:39.295Z,12.80
2017-09-12T05:31:06.163Z,12.80
2017-09-12T05:33:32.294Z,12.80
2017-09-12T05:35:58.435Z,12.90
2017-09-12T05:38:24.607Z,12.90
2017-09-12T05:40:50.710Z,12.90
2017-09-12T05:43:16.900Z,12.90
2017-09-12T05:45:43.027Z,12.90
2017-09-12T05:48:09.180Z,12.90
2017-09-12T05:50:35.307Z,12.90
2017-09-12T05:53:01.458Z,12.90
2017-09-12T05:55:27.669Z,12.90
2017-09-12T05:57:53.797Z,12.80
2017-09-12T06:00:19.915Z,12.90
2017-09-12T06:02:46.048Z,12.90
2017-09-12T06:05:12.165Z,13.00
2017-09-12T06:07:38.295Z,13.00
2017-09-12T06:10:05.194Z,13.00
2017-09-12T06:12:31.318Z,13.00
2017-09-12T06:14:57.471Z,13.10
2017-09-12T06:17:23.607Z,13.10
2017-09-12T06:19:49.773Z,13.10
2017-09-12T06:22:16.637Z,13.20
2017-09-12T06:24:42.784Z,13.20
2017-09-12T06:27:08.915Z,13.30
2017-09-12T06:29:35.063Z,13.30
2017-09-12T06:32:01.202Z,13.30
2017-09-12T06:34:27.379Z,13.20
2017-09-12T06:36:53.544Z,13.20
2017-09-12T06:39:19.711Z,13.20
2017-09-12T06:41:45.841Z,13.30
2017-09-12T06:44:11.994Z,13.30
2017-09-12T06:46:38.143Z,13.40
2017-09-12T06:49:04.315Z,13.50
2017-09-12T06:51:30.463Z,13.60
2017-09-12T06:53:56.601Z,13.60
2017-09-12T06:56:22.769Z,13.60
2017-09-12T06:58:49.702Z,13.70
2017-09-12T07:01:16.590Z,13.80
2017-09-12T07:03:42.747Z,13.80
2017-09-12T07:06:09.641Z,13.90
2017-09-12T07:08:35.830Z,13.90
2017-09-12T07:11:02.022Z,14.00
2017-09-12T07:13:28.190Z,14.10
2017-09-12T07:15:54.346Z,14.10
2017-09-12T07:18:20.476Z,14.20
2017-09-12T07:20:46.626Z,14.20
2017-09-12T07:23:12.778Z,14.30
2017-09-12T07:25:38.974Z,14.30
2017-09-12T07:28:05.122Z,14.40
2017-09-12T07:30:31.248Z,14.50
2017-09-12T07:32:57.423Z,14.50
2017-09-12T07:35:23.558Z,14.60
2017-09-12T07:37:49.730Z,14.50
2017-09-12T07:40:15.857Z,14.50
2017-09-12T07:42:42.007Z,14.50
2017-09-12T07:45:08.191Z,14.60
2017-09-12T07:47:34.334Z,14.60
2017-09-12T07:50:00.442Z,14.70
2017-09-12T07:52:26.593Z,14.80
2017-09-12T07:54:52.722Z,14.80
2017-09-12T07:57:18.911Z,14.90
2017-09-12T07:59:45.814Z,15.20
2017-09-12T08:02:11.971Z,15.20
2017-09-12T08:04:38.102Z,15.30
2017-09-12T08:07:04.253Z,15.20
2017-09-12T08:09:30.379Z,15.30
2017-09-12T08:11:56.499Z,15.30
2017-09-12T08:14:22.636Z,15.30
2017-09-12T08:16:48.764Z,15.30
2017-09-12T08:19:14.929Z,15.30
2017-09-12T08:21:41.074Z,15.20
2017-09-12T08:24:07.218Z,15.10
2017-09-12T08:26:33.326Z,15.00
2017-09-12T08:28:59.470Z,15.10
2017-09-12T08:31:26.394Z,15.00
2017-09-12T08:33:52.524Z,15.00
2017-09-12T08:36:19.434Z,15.10
2017-09-12T08:38:45.574Z,15.10
2017-09-12T08:41:11.722Z,15.30
2017-09-12T08:43:37.879Z,15.30
2017-09-12T08:46:04.746Z,15.30
2017-09-12T08:48:30.873Z,15.30
2017-09-12T08:51:02.295Z,15.30
2017-09-12T08:53:28.415Z,15.20
2017-09-12T08:55:55.302Z,15.20
2017-09-12T08:58:21.430Z,15.20
2017-09-12T09:00:47.582Z,15.30
2017-09-12T09:03:13.704Z,15.30
2017-09-12T09:05:39.853Z,15.40
2017-09-12T09:08:05.970Z,15.40
2017-09-12T09:10:32.135Z,15.40
2017-09-12T09:12:58.267Z,15.40
2017-09-12T09:15:25.154Z,15.40
2017-09-12T09:17:54.348Z,15.40
2017-09-12T09:20:22.178Z,15.40
2017-09-12T09:22:54.858Z,15.50
2017-09-12T09:25:22.389Z,15.60
2017-09-12T09:27:48.519Z,15.60
2017-09-12T09:30:14.684Z,15.60
2017-09-12T09:32:40.830Z,15.60
2017-09-12T09:35:06.976Z,15.60
2017-09-12T09:37:33.123Z,15.80
2017-09-12T09:39:59.312Z,15.90
2017-09-12T09:42:26.218Z,15.90
2017-09-12T09:44:52.354Z,15.90
2017-09-12T09:47:19.272Z,16.00
2017-09-12T09:49:47.734Z,15.90
2017-09-12T09:52:21.481Z,16.10
2017-09-12T09:54:47.679Z,16.20
2017-09-12T09:57:13.870Z,16.30
2017-09-12T09:59:40.781Z,16.30
2017-09-12T10:02:06.963Z,16.30
2017-09-12T10:04:33.114Z,16.30
2017-09-12T10:06:59.998Z,16.30
2017-09-12T10:09:26.143Z,16.30
2017-09-12T10:11:52.288Z,16.30
2017-09-12T10:14:18.515Z,16.20
2017-09-12T10:16:44.641Z,16.20
2017-09-12T10:19:10.767Z,16.20
2017-09-12T10:21:36.886Z,16.20
2017-09-12T10:24:03.055Z,16.30
2017-09-12T10:26:29.181Z,16.40
2017-09-12T10:28:55.314Z,16.50
2017-09-12T10:31:22.268Z,16.40
2017-09-12T10:33:48.427Z,16.40
2017-09-12T10:36:14.567Z,16.20
2017-09-12T10:38:40.702Z,16.20
2017-09-12T10:41:07.562Z,16.20
2017-09-12T10:43:33.759Z,16.20
2017-09-12T10:45:59.886Z,16.30
2017-09-12T10:48:26.022Z,16.20
2017-09-12T10:50:52.154Z,16.10
2017-09-12T10:53:18.271Z,15.90
2017-09-12T10:55:44.426Z,15.80
2017-09-12T10:58:10.582Z,15.80
2017-09-12T11:00:36.736Z,15.70
2017-09-12T11:03:03.663Z,15.70
2017-09-12T11:05:30.539Z,15.80
2017-09-12T11:07:56.674Z,15.80
2017-09-12T11:10:23.052Z,16.00
2017-09-12T11:12:49.314Z,16.20
2017-09-12T11:15:15.483Z,16.30
2017-09-12T11:17:41.612Z,16.40
2017-09-12T11:20:07.774Z,16.50
2017-09-12T11:22:34.666Z,16.50
2017-09-12T11:25:00.831Z,16.40
2017-09-12T11:27:26.930Z,16.50
2017-09-12T11:29:53.064Z,16.50
2017-09-12T11:32:19.223Z,16.80
2017-09-12T11:34:45.353Z,16.60
2017-09-12T11:37:11.502Z,16.50
2017-09-12T11:39:37.662Z,16.50
2017-09-12T11:42:03.791Z,16.00
2017-09-12T11:44:30.712Z,14.90
2017-09-12T11:46:56.842Z,14.80
2017-09-12T11:49:23.736Z,14.40
2017-09-12T11:51:50.000Z,14.40
2017-09-12T11:54:16.148Z,14.30
2017-09-12T11:56:42.307Z,14.30
2017-09-12T11:59:09.188Z,14.60
2017-09-12T12:01:35.411Z,14.60
2017-09-12T12:04:01.546Z,14.90
2017-09-12T12:06:27.666Z,15.30
2017-09-12T12:08:54.538Z,16.10
2017-09-12T12:11:20.671Z,16.10
2017-09-12T12:13:46.802Z,16.50
2017-09-12T12:16:12.930Z,16.80
2017-09-12T12:18:39.872Z,17.40
2017-09-12T12:21:06.023Z,17.40
2017-09-12T12:23:32.130Z,17.50
2017-09-12T12:25:58.241Z,17.60
2017-09-12T12:28:24.386Z,17.80
2017-09-12T12:30:50.518Z,17.80
2017-09-12T12:33:17.387Z,17.80
2017-09-12T12:35:43.491Z,17.70
2017-09-12T12:38:09.615Z,17.30
2017-09-12T12:40:35.762Z,17.30
2017-09-12T12:43:02.142Z,17.20
2017-09-12T12:45:28.266Z,17.40
2017-09-12T12:47:54.394Z,17.40
2017-09-12T12:50:20.531Z,17.30
2017-09-12T12:52:47.427Z,17.10
2017-09-12T12:55:13.551Z,17.10
2017-09-12T12:57:39.698Z,16.90
2017-09-12T13:00:05.815Z,16.90
2017-09-12T13:02:31.962Z,17.10
2017-09-12T13:04:58.094Z,17.00
2017-09-12T13:07:24.218Z,16.80
2017-09-12T13:09:51.154Z,16.70
2017-09-12T13:12:18.047Z,16.50
2017-09-12T13:14:44.209Z,16.50
2017-09-12T13:17:11.531Z,16.40
2017-09-12T13:19:38.438Z,16.60
2017-09-12T13:22:04.539Z,16.50
2017-09-12T13:24:30.706Z,16.50
2017-09-12T13:26:56.818Z,16.60
2017-09-12T13:29:22.978Z,16.70
2017-09-12T13:31:49.138Z,16.60
2017-09-12T13:34:15.259Z,16.70
2017-09-12T13:36:41.462Z,16.70
2017-09-12T13:39:07.603Z,16.70
2017-09-12T13:41:33.743Z,16.70
2017-09-12T13:43:59.860Z,16.80
2017-09-12T13:46:25.999Z,16.80
2017-09-12T13:48:52.125Z,16.80
2017-09-12T13:51:18.272Z,16.80
2017-09-12T13:53:44.409Z,16.80
2017-09-12T13:56:10.546Z,16.80
2017-09-12T13:58:36.667Z,16.80
2017-09-12T14:01:07.121Z,16.80
2017-09-12T14:03:33.371Z,16.80
2017-09-12T14:06:00.257Z,16.80
2017-09-12T14:08:26.383Z,16.80
2017-09-12T14:10:52.546Z,16.90
2017-09-12T14:13:18.658Z,16.90
2017-09-12T14:15:46.343Z,16.90
2017-09-12T14:18:12.514Z,17.10
2017-09-12T14:20:38.630Z,17.20
2017-09-12T14:23:04.771Z,17.10
2017-09-12T14:25:30.891Z,17.10
2017-09-12T14:27:57.028Z,17.20
2017-09-12T14:30:23.922Z,17.40
2017-09-12T14:32:50.118Z,17.40
2017-09-12T14:35:16.262Z,17.40
2017-09-12T14:37:42.425Z,17.40
2017-09-12T14:40:08.566Z,17.40
2017-09-12T14:42:34.754Z,17.40
2017-09-12T14:45:00.931Z,17.40
2017-09-12T14:47:27.079Z,17.40
2017-09-12T14:49:53.232Z,17.30
2017-09-12T14:52:19.386Z,17.40
2017-09-12T14:54:45.559Z,17.60
2017-09-12T14:57:11.758Z,17.60
2017-09-12T14:59:37.919Z,17.70
2017-09-12T15:02:04.794Z,17.60
2017-09-12T15:04:30.966Z,17.60
2017-09-12T15:06:57.127Z,17.60
2017-09-12T15:09:23.271Z,17.50
2017-09-12T15:11:49.386Z,17.50
2017-09-12T15:14:15.528Z,17.60
2017-09-12T15:16:41.655Z,17.60
2017-09-12T15:19:07.783Z,17.60
2017-09-12T15:21:33.913Z,17.60
2017-09-12T15:24:00.051Z,17.70
2017-09-12T15:26:26.179Z,17.70
2017-09-12T15:28:52.315Z,17.70
2017-09-12T15:31:18.434Z,17.70
2017-09-12T15:33:44.575Z,17.80
2017-09-12T15:36:10.690Z,17.80
2017-09-12T15:38:36.803Z,17.70
2017-09-12T15:41:03.687Z,17.80
2017-09-12T15:43:29.844Z,17.70
2017-09-12T15:45:55.967Z,17.70
2017-09-12T15:48:22.098Z,17.60
2017-09-12T15:50:48.227Z,17.70
2017-09-12T15:53:14.351Z,17.60
2017-09-12T15:55:40.479Z,17.60
2017-09-12T15:58:06.587Z,17.50
2017-09-12T16:00:32.722Z,17.40
2017-09-12T16:02:59.587Z,17.30
2017-09-12T16:05:25.723Z,17.30
2017-09-12T16:07:52.038Z,17.20
2017-09-12T16:10:18.615Z,17.20
2017-09-12T16:12:45.869Z,16.50
2017-09-12T16:15:12.030Z,16.50
2017-09-12T16:17:38.176Z,16.00
2017-09-12T16:20:04.327Z,15.90
2017-09-12T16:22:30.485Z,15.30
2017-09-12T16:24:56.603Z,15.10
2017-09-12T16:27:22.756Z,15.00
2017-09-12T16:29:48.891Z,14.90
2017-09-12T16:32:15.040Z,14.70
2017-09-12T16:34:41.191Z,14.70
2017-09-12T16:37:07.337Z,14.70
2017-09-12T16:39:33.465Z,14.60
2017-09-12T16:42:00.362Z,14.60
2017-09-12T16:44:26.498Z,14.60
2017-09-12T16:46:52.659Z,14.50
2017-09-12T16:49:18.806Z,14.50
2017-09-12T16:51:45.010Z,14.40
2017-09-12T16:54:24.860Z,14.30
2017-09-12T16:56:52.086Z,14.10
2017-09-12T16:59:18.279Z,14.10
2017-09-12T17:01:45.513Z,14.00
2017-09-12T17:04:12.502Z,13.80
2017-09-12T17:06:39.395Z,13.90
2017-09-12T17:09:05.811Z,13.90
2017-09-12T17:11:31.974Z,14.10
2017-09-12T17:13:58.094Z,14.10
2017-09-12T17:16:24.268Z,14.00
2017-09-12T17:18:50.438Z,13.90
2017-09-12T17:21:16.587Z,13.90
2017-09-12T17:23:42.711Z,13.90
2017-09-12T17:26:08.811Z,13.80
2017-09-12T17:28:35.706Z,13.60
2017-09-12T17:31:01.864Z,13.60
2017-09-12T17:33:28.007Z,13.60
2017-09-12T17:35:55.572Z,13.60
2017-09-12T17:38:21.741Z,13.50
2017-09-12T17:40:48.604Z,13.30
2017-09-12T17:43:14.743Z,13.30
2017-09-12T17:45:40.890Z,13.20
2017-09-12T17:48:07.031Z,13.20
2017-09-12T17:50:33.163Z,13.00
2017-09-12T17:52:59.352Z,12.90
2017-09-12T17:55:25.495Z,12.90
2017-09-12T17:57:51.650Z,12.90
2017-09-12T18:00:17.777Z,12.90
2017-09-12T18:02:43.898Z,12.90
2017-09-12T18:05:10.035Z,12.80
2017-09-12T18:07:36.203Z,12.90
2017-09-12T18:10:03.378Z,12.80
2017-09-12T18:12:29.497Z,12.80
2017-09-12T18:14:55.635Z,12.80
2017-09-12T18:17:21.778Z,12.80
2017-09-12T18:19:47.915Z,12.80
2017-09-12T18:22:14.061Z,12.80
2017-09-12T18:24:40.337Z,12.80
2017-09-12T18:27:06.638Z,12.80
2017-09-12T18:29:33.011Z,12.70
2017-09-12T18:31:59.149Z,12.70
2017-09-12T18:34:25.295Z,12.70
2017-09-12T18:36:51.490Z,12.70
2017-09-12T18:39:17.626Z,12.70
2017-09-12T18:41:43.829Z,12.70
2017-09-12T18:44:10.008Z,12.70
2017-09-12T18:46:36.227Z,12.70
2017-09-12T18:49:03.076Z,12.80
2017-09-12T18:51:29.262Z,12.80
2017-09-12T18:53:55.387Z,12.90
2017-09-12T18:56:21.568Z,12.90
2017-09-12T18:58:48.588Z,13.10
2017-09-12T19:01:14.753Z,13.00
2017-09-12T19:03:40.879Z,13.10
2017-09-12T19:06:07.027Z,13.10
2017-09-12T19:08:33.163Z,13.10
2017-09-12T19:10:59.362Z,13.20
2017-09-12T19:13:26.230Z,13.20
2017-09-12T19:15:52.397Z,13.20
2017-09-12T19:18:18.567Z,13.30
2017-09-12T19:20:44.722Z,13.30
2017-09-12T19:23:10.887Z,13.30
2017-09-12T19:25:37.044Z,13.40
2017-09-12T19:28:03.191Z,13.40
2017-09-12T19:30:29.338Z,13.40
2017-09-12T19:32:55.648Z,13.40
2017-09-12T19:35:21.799Z,13.40
2017-09-12T19:37:47.966Z,13.50
2017-09-12T19:40:14.087Z,13.50
2017-09-12T19:42:40.252Z,13.50
2017-09-12T19:45:06.373Z,13.50
2017-09-12T19:47:32.558Z,13.50
2017-09-12T19:49:59.451Z,13.50
2017-09-12T19:52:25.606Z,13.50
2017-09-12T19:54:52.476Z,13.50
2017-09-12T19:57:18.634Z,13.50
2017-09-12T19:59:44.773Z,13.50
2017-09-12T20:02:10.947Z,13.50
2017-09-12T20:04:37.174Z,13.50
2017-09-12T20:07:04.094Z,13.50
2017-09-12T20:09:30.230Z,13.50
2017-09-12T20:11:57.122Z,13.40
2017-09-12T20:14:23.295Z,13.40
2017-09-12T20:16:49.530Z,13.50
2017-09-12T20:19:15.687Z,13.40
2017-09-12T20:21:42.642Z,13.40
2017-09-12T20:24:08.899Z,13.40
2017-09-12T20:26:35.034Z,13.40
2017-09-12T20:29:02.015Z,13.40
2017-09-12T20:31:28.152Z,13.40
2017-09-12T20:33:54.292Z,13.40
2017-09-12T20:36:21.174Z,13.40
2017-09-12T20:38:47.392Z,13.30
2017-09-12T20:41:13.551Z,13.30
2017-09-12T20:43:39.724Z,13.30
2017-09-12T20:46:06.156Z,13.30
2017-09-12T20:48:32.444Z,13.30
2017-09-12T20:50:58.598Z,13.20
2017-09-12T20:53:24.831Z,13.20
2017-09-12T20:55:51.047Z,13.20
2017-09-12T20:58:17.959Z,13.00
2017-09-12T21:00:44.861Z,13.00
2017-09-12T21:03:10.991Z,13.00
2017-09-12T21:05:37.155Z,13.00
2017-09-12T21:08:03.358Z,13.00
2017-09-12T21:10:29.509Z,13.00
2017-09-12T21:12:55.619Z,13.00
2017-09-12T21:15:21.766Z,13.00
2017-09-12T21:17:48.630Z,13.00
2017-09-12T21:20:14.767Z,12.90
2017-09-12T21:22:41.074Z,12.90
2017-09-12T21:25:07.995Z,13.00
2017-09-12T21:27:34.130Z,12.90
2017-09-12T21:30:00.274Z,13.00
2017-09-12T21:32:26.410Z,13.00
2017-09-12T21:34:52.537Z,12.90
2017-09-12T21:37:18.662Z,13.00
2017-09-12T21:39:44.803Z,13.00
2017-09-12T21:42:10.943Z,13.00
2017-09-12T21:44:37.068Z,13.00
2017-09-12T21:47:03.206Z,13.00
2017-09-12T21:49:29.340Z,13.00
2017-09-12T21:51:55.463Z,13.10
2017-09-12T21:54:21.610Z,13.00
2017-09-12T21:56:47.763Z,13.00
2017-09-12T21:59:13.910Z,13.00
2017-09-12T22:01:40.819Z,13.00
2017-09-12T22:04:06.937Z,12.90
2017-09-12T22:06:33.820Z,12.90
2017-09-12T22:09:00.011Z,12.90
2017-09-12T22:11:26.167Z,12.80
2017-09-12T22:13:52.290Z,12.80
2017-09-12T22:16:18.414Z,12.80
2017-09-12T22:18:44.538Z,12.80
2017-09-12T22:21:11.411Z,12.80
2017-09-12T22:23:37.556Z,12.80
2017-09-12T22:26:03.694Z,12.70
2017-09-12T22:28:29.829Z,12.70
2017-09-12T22:30:55.953Z,12.70
2017-09-12T22:33:22.083Z,12.70
2017-09-12T22:35:49.018Z,12.60
2017-09-12T22:38:15.146Z,12.60
2017-09-12T22:40:41.266Z,12.60
2017-09-12T22:43:08.136Z,12.60
2017-09-12T22:45:34.289Z,12.60
2017-09-12T22:48:00.448Z,12.60
2017-09-12T22:50:26.573Z,12.50
2017-09-12T22:52:52.742Z,12.50
2017-09-12T22:55:19.651Z,12.50
2017-09-12T22:57:45.781Z,12.60
2017-09-12T23:00:12.642Z,12.50
2017-09-12T23:02:38.770Z,12.50
2017-09-12T23:05:04.914Z,12.50
2017-09-12T23:07:31.026Z,12.50
2017-09-12T23:09:57.192Z,12.50
2017-09-12T23:12:24.047Z,12.50
2017-09-12T23:14:50.190Z,12.50
2017-09-12T23:17:16.310Z,12.50
2017-09-12T23:19:43.186Z,12.50
2017-09-12T23:22:09.342Z,12.50
2017-09-12T23:24:36.234Z,12.50
2017-09-12T23:27:02.345Z,12.50
2017-09-12T23:29:28.493Z,12.50
2017-09-12T23:31:55.360Z,12.40
2017-09-12T23:34:21.531Z,12.50
2017-09-12T23:36:47.638Z,12.40
2017-09-12T23:39:13.781Z,12.40
2017-09-12T23:41:39.924Z,12.40
2017-09-12T23:44:06.079Z,12.50
2017-09-12T23:46:32.207Z,12.40
2017-09-12T23:48:58.320Z,12.40
2017-09-12T23:51:24.480Z,12.50
2017-09-12T23:53:50.622Z,12.40
2017-09-12T23:56:16.767Z,12.40
2017-09-12T23:58:42.915Z,12.40
